WINNIPESAUKEE R @ TILTON: From 03/08/2019 19:00 to 03/23/2019 03:00

Date STAGE [FT] FLOW [CFS] AIR TEMPERATURE [DEGF]
03/22/2019 22:00 3.68 739.0 36.4
03/22/2019 21:00 3.68 739.0 35.6
03/22/2019 20:00 3.68 739.0 35.4
03/22/2019 19:00 3.67 734.0 35.5
03/22/2019 18:00 3.66 729.0 35.9
03/22/2019 17:00 3.66 729.0 37.2
03/22/2019 16:00 3.66 729.0 38.1
03/22/2019 15:00 3.66 729.0 40.0
03/22/2019 14:00 3.65 724.0 39.3
03/22/2019 13:00 3.66 729.0 37.4
03/22/2019 12:00 3.66 729.0 36.7
03/22/2019 11:00 3.68 739.0 36.6
03/22/2019 10:00 3.66 729.0 33.7
03/22/2019 09:00 3.67 734.0 34.1
03/22/2019 08:00 3.68 739.0 33.8
03/22/2019 07:00 3.68 739.0 34.4
03/22/2019 06:00 3.68 739.0 34.8
03/22/2019 05:00 3.68 739.0 34.7
03/22/2019 04:00 3.68 739.0 35.3
03/22/2019 03:00 3.68 739.0 35.9
03/22/2019 02:00 3.69 744.0 36.4
03/22/2019 01:00 3.69 744.0 36.5
03/22/2019 00:00 3.69 744.0 36.9
03/21/2019 23:00 3.71 754.0 37.6
03/21/2019 22:00 3.71 754.0 38.7
03/21/2019 21:00 3.71 754.0 40.4
03/21/2019 20:00 3.72 759.0 42.1
03/21/2019 19:00 3.73 764.0 44.3
03/21/2019 18:00 3.73 764.0 46.0
03/21/2019 17:00 3.74 769.0 46.6
03/21/2019 16:00 3.75 774.0 46.6
03/21/2019 15:00 3.76 779.0 45.8
03/21/2019 14:00 3.78 790.0 47.3
03/21/2019 13:00 3.80 800.0 46.5
03/21/2019 12:00 3.83 815.0 44.2
03/21/2019 11:00 3.85 826.0 43.6
03/21/2019 10:00 3.76 779.0 42.6
03/21/2019 09:00 3.78 790.0 42.9
03/21/2019 08:00 3.80 800.0 43.3
03/21/2019 07:00 3.83 815.0 43.6
03/21/2019 06:00 3.85 826.0 43.9
03/21/2019 05:00 -- -- 44.2
03/21/2019 04:00 -- -- 44.6
03/21/2019 03:00 -- -- 44.9
03/21/2019 02:00 -- -- 45.2
03/21/2019 01:00 -- -- 45.5
03/21/2019 00:00 -- -- 45.9
03/20/2019 23:00 -- -- 46.2
03/20/2019 22:00 -- -- 46.5
03/20/2019 21:00 -- -- 46.8
03/20/2019 20:00 -- -- 47.2
03/20/2019 19:00 -- -- 47.5
03/20/2019 18:00 -- -- 47.8
03/20/2019 17:00 -- -- 48.1
03/20/2019 16:00 -- -- 48.5
03/20/2019 15:00 -- -- 48.8
03/20/2019 14:00 3.88 842.0 46.1
03/20/2019 13:00 3.88 842.0 45.5
03/20/2019 12:00 3.88 842.0 41.6
03/20/2019 11:00 3.89 847.0 39.2
03/20/2019 10:00 3.88 842.0 33.6
03/20/2019 09:00 3.89 847.0 27.2
03/20/2019 08:00 3.89 847.0 19.6
03/20/2019 07:00 3.89 847.0 15.4
03/20/2019 06:00 3.90 852.0 15.0
03/20/2019 05:00 3.89 847.0 16.0
03/20/2019 04:00 3.90 852.0 16.2
03/20/2019 03:00 3.89 847.0 17.3
03/20/2019 02:00 3.90 852.0 18.2
03/20/2019 01:00 3.90 852.0 19.4
03/20/2019 00:00 3.89 847.0 21.3
03/19/2019 23:00 3.90 852.0 22.5
03/19/2019 22:00 3.89 847.0 24.1
03/19/2019 21:00 3.90 852.0 26.0
03/19/2019 20:00 3.90 852.0 29.0
03/19/2019 19:00 3.90 852.0 35.0
03/19/2019 18:00 3.90 852.0 37.2
03/19/2019 17:00 3.90 852.0 38.3
03/19/2019 16:00 3.90 852.0 40.0
03/19/2019 15:00 3.89 847.0 40.8
03/19/2019 14:00 3.90 852.0 38.3
03/19/2019 13:00 3.90 852.0 39.2
03/19/2019 12:00 3.90 852.0 38.7
03/19/2019 11:00 3.90 852.0 36.9
03/19/2019 10:00 3.91 858.0 36.1
03/19/2019 09:00 3.91 858.0 31.8
03/19/2019 08:00 3.90 852.0 17.9
03/19/2019 07:00 3.92 863.0 18.0
03/19/2019 06:00 3.91 858.0 18.1
03/19/2019 05:00 3.91 858.0 19.4
03/19/2019 04:00 3.92 863.0 20.1
03/19/2019 03:00 3.92 863.0 21.9
03/19/2019 02:00 3.92 863.0 20.4
03/19/2019 01:00 3.92 863.0 22.5
03/19/2019 00:00 3.91 858.0 24.2
03/18/2019 23:00 3.92 863.0 24.2
03/18/2019 22:00 3.92 863.0 24.8
03/18/2019 21:00 3.92 863.0 26.8
03/18/2019 20:00 3.92 863.0 30.1
03/18/2019 19:00 3.92 863.0 34.1
03/18/2019 18:00 3.94 874.0 35.7
03/18/2019 17:00 3.94 874.0 36.7
03/18/2019 16:00 3.93 868.0 37.6
03/18/2019 15:00 3.95 879.0 37.9
03/18/2019 14:00 3.94 874.0 36.9
03/18/2019 13:00 3.94 874.0 35.8
03/18/2019 12:00 3.94 874.0 34.6
03/18/2019 11:00 3.94 874.0 32.8
03/18/2019 10:00 3.95 879.0 30.8
03/18/2019 09:00 3.96 884.0 30.4
03/18/2019 08:00 3.96 884.0 23.7
03/18/2019 07:00 3.96 884.0 17.8
03/18/2019 06:00 3.97 890.0 19.8
03/18/2019 05:00 3.97 890.0 20.6
03/18/2019 04:00 3.98 895.0 18.8
03/18/2019 03:00 3.98 895.0 18.9
03/18/2019 02:00 3.99 901.0 20.2
03/18/2019 01:00 4.00 906.0 22.3
03/18/2019 00:00 3.97 890.0 24.4
03/17/2019 23:00 3.98 895.0 26.5
03/17/2019 22:00 3.98 895.0 28.1
03/17/2019 21:00 3.99 901.0 29.0
03/17/2019 20:00 4.00 906.0 29.7
03/17/2019 19:00 4.00 906.0 30.9
03/17/2019 18:00 4.02 917.0 33.0
03/17/2019 17:00 4.01 911.0 33.4
03/17/2019 16:00 4.02 917.0 34.6
03/17/2019 15:00 4.02 917.0 34.1
03/17/2019 14:00 4.02 917.0 33.7
03/17/2019 13:00 4.01 911.0 33.9
03/17/2019 12:00 4.02 917.0 32.7
03/17/2019 11:00 4.02 917.0 31.5
03/17/2019 10:00 4.02 917.0 32.2
03/17/2019 09:00 4.02 917.0 30.9
03/17/2019 08:00 4.03 922.0 28.2
03/17/2019 07:00 4.03 922.0 26.0
03/17/2019 06:00 4.03 922.0 26.4
03/17/2019 05:00 4.03 922.0 27.5
03/17/2019 04:00 4.04 928.0 29.3
03/17/2019 03:00 4.04 928.0 30.3
03/17/2019 02:00 4.04 928.0 30.7
03/17/2019 01:00 4.04 928.0 31.2
03/17/2019 00:00 4.03 922.0 31.5
03/16/2019 23:00 4.04 928.0 31.2
03/16/2019 22:00 4.04 928.0 30.7
03/16/2019 21:00 4.04 928.0 32.8
03/16/2019 20:00 4.04 928.0 34.3
03/16/2019 19:00 4.03 922.0 36.3
03/16/2019 18:00 4.03 922.0 37.9
03/16/2019 17:00 4.02 917.0 38.6
03/16/2019 16:00 4.02 917.0 40.2
03/16/2019 15:00 4.00 906.0 41.5
03/16/2019 14:00 4.00 906.0 41.7
03/16/2019 13:00 3.99 901.0 42.4
03/16/2019 12:00 3.97 890.0 43.3
03/16/2019 11:00 3.96 884.0 44.7
03/16/2019 10:00 3.95 879.0 45.7
03/16/2019 09:00 3.97 890.0 43.4
03/16/2019 08:00 3.96 884.0 41.6
03/16/2019 07:00 3.96 884.0 41.2
03/16/2019 06:00 3.94 874.0 41.5
03/16/2019 05:00 3.94 874.0 42.7
03/16/2019 04:00 3.94 874.0 38.1
03/16/2019 03:00 3.92 863.0 39.9
03/16/2019 02:00 3.92 863.0 39.6
03/16/2019 01:00 3.91 858.0 41.6
03/16/2019 00:00 3.94 874.0 37.9
03/15/2019 23:00 3.94 874.0 37.2
03/15/2019 22:00 3.92 863.0 37.4
03/15/2019 21:00 3.92 863.0 37.8
03/15/2019 20:00 3.91 858.0 39.9
03/15/2019 19:00 3.91 858.0 44.4
03/15/2019 18:00 3.87 836.0 54.1
03/15/2019 17:00 3.86 831.0 58.5
03/15/2019 16:00 3.84 821.0 60.5
03/15/2019 15:00 3.83 815.0 59.9
03/15/2019 14:00 3.82 810.0 58.8
03/15/2019 13:00 3.82 810.0 49.9
03/15/2019 12:00 3.81 805.0 44.4
03/15/2019 11:00 3.81 805.0 42.1
03/15/2019 10:00 3.81 805.0 39.5
03/15/2019 09:00 3.81 805.0 38.0
03/15/2019 08:00 3.81 805.0 37.1
03/15/2019 07:00 3.81 805.0 36.4
03/15/2019 06:00 3.80 800.0 36.5
03/15/2019 05:00 3.81 805.0 35.3
03/15/2019 04:00 3.80 800.0 34.7
03/15/2019 03:00 3.80 800.0 35.8
03/15/2019 02:00 3.80 800.0 36.0
03/15/2019 01:00 3.80 800.0 36.3
03/15/2019 00:00 3.81 805.0 36.1
03/14/2019 23:00 3.80 800.0 34.0
03/14/2019 22:00 3.80 800.0 35.3
03/14/2019 21:00 3.80 800.0 37.4
03/14/2019 20:00 3.80 800.0 40.8
03/14/2019 19:00 3.79 795.0 41.6
03/14/2019 18:00 3.79 795.0 45.4
03/14/2019 17:00 3.79 795.0 45.4
03/14/2019 16:00 3.79 795.0 45.5
03/14/2019 15:00 3.79 795.0 48.0
03/14/2019 14:00 3.79 795.0 45.6
03/14/2019 13:00 3.79 795.0 43.2
03/14/2019 12:00 3.79 795.0 40.4
03/14/2019 11:00 3.80 800.0 37.5
03/14/2019 10:00 3.80 800.0 34.7
03/14/2019 09:00 3.79 795.0 33.5
03/14/2019 08:00 3.79 795.0 32.5
03/14/2019 07:00 3.79 795.0 32.1
03/14/2019 06:00 3.79 795.0 32.2
03/14/2019 05:00 3.80 800.0 32.3
03/14/2019 04:00 3.79 795.0 32.4
03/14/2019 03:00 3.80 800.0 32.7
03/14/2019 02:00 3.80 800.0 33.1
03/14/2019 01:00 3.80 800.0 33.0
03/14/2019 00:00 3.80 800.0 33.4
03/13/2019 23:00 3.79 795.0 33.7
03/13/2019 22:00 3.80 800.0 35.7
03/13/2019 21:00 3.80 800.0 37.3
03/13/2019 20:00 3.80 800.0 37.0
03/13/2019 19:00 3.80 800.0 38.1
03/13/2019 18:00 3.80 800.0 40.2
03/13/2019 17:00 3.81 805.0 41.0
03/13/2019 16:00 3.81 805.0 41.7
03/13/2019 15:00 3.81 805.0 42.2
03/13/2019 14:00 3.80 800.0 40.4
03/13/2019 13:00 3.81 805.0 40.5
03/13/2019 12:00 3.82 810.0 39.7
03/13/2019 11:00 3.82 810.0 37.8
03/13/2019 10:00 3.81 805.0 35.9
03/13/2019 09:00 3.82 810.0 31.1
03/13/2019 08:00 3.83 815.0 20.3
03/13/2019 07:00 3.83 815.0 16.8
03/13/2019 06:00 3.83 815.0 17.6
03/13/2019 05:00 3.83 815.0 20.2
03/13/2019 04:00 3.85 826.0 20.3
03/13/2019 03:00 3.85 826.0 24.2
03/13/2019 02:00 3.86 831.0 25.1
03/13/2019 01:00 3.86 831.0 25.6
03/13/2019 00:00 3.83 815.0 27.3
03/12/2019 23:00 3.85 826.0 28.4
03/12/2019 22:00 3.85 826.0 29.8
03/12/2019 21:00 3.86 831.0 29.2
03/12/2019 20:00 3.86 831.0 32.6
03/12/2019 19:00 3.87 836.0 34.8
03/12/2019 18:00 3.94 874.0 37.1
03/12/2019 17:00 3.96 884.0 38.3
03/12/2019 16:00 3.98 895.0 39.2
03/12/2019 15:00 4.00 906.0 39.2
03/12/2019 14:00 4.02 917.0 38.2
03/12/2019 13:00 4.03 922.0 37.1
03/12/2019 12:00 4.06 939.0 36.1
03/12/2019 11:00 4.09 955.0 35.4
03/12/2019 10:00 4.14 983.0 35.1
03/12/2019 09:00 4.17 1000.0 32.1
03/12/2019 08:00 4.17 1000.0 29.4
03/12/2019 07:00 4.17 1000.0 29.1
03/12/2019 06:00 4.18 1010.0 29.2
03/12/2019 05:00 4.17 1000.0 29.8
03/12/2019 04:00 4.17 1000.0 30.9
03/12/2019 03:00 4.17 1000.0 30.6
03/12/2019 02:00 4.17 1000.0 32.2
03/12/2019 01:00 4.17 1000.0 32.4
03/12/2019 00:00 4.17 1000.0 32.8
03/11/2019 23:00 4.17 1000.0 33.1
03/11/2019 22:00 4.17 1000.0 34.0
03/11/2019 21:00 4.17 1000.0 35.0
03/11/2019 20:00 4.17 1000.0 36.4
03/11/2019 19:00 4.18 1010.0 37.5
03/11/2019 18:00 4.15 989.0 38.7
03/11/2019 17:00 4.15 989.0 40.2
03/11/2019 16:00 4.15 989.0 39.7
03/11/2019 15:00 4.16 994.0 40.2
03/11/2019 14:00 4.16 994.0 41.1
03/11/2019 13:00 4.17 1000.0 42.0
03/11/2019 12:00 4.17 1000.0 42.1
03/11/2019 11:00 4.17 1000.0 41.2
03/11/2019 10:00 4.18 1010.0 40.4
03/11/2019 09:00 4.17 1000.0 35.2
03/11/2019 08:00 4.16 994.0 34.3
03/11/2019 07:00 4.17 1000.0 33.2
03/11/2019 06:00 4.17 1000.0 33.1
03/11/2019 05:00 4.17 1000.0 31.9
03/11/2019 04:00 4.18 1010.0 30.9
03/11/2019 03:00 4.17 1000.0 31.0
03/11/2019 02:00 4.18 1010.0 30.4
03/11/2019 01:00 4.17 1000.0 30.1
03/11/2019 00:00 4.17 1000.0 31.3
03/10/2019 23:00 4.18 1010.0 31.5
03/10/2019 22:00 4.17 1000.0 31.6
03/10/2019 21:00 4.18 1010.0 31.4
03/10/2019 20:00 4.17 1000.0 30.7
03/10/2019 19:00 4.19 1010.0 30.1
03/10/2019 18:00 4.19 1010.0 29.7
03/10/2019 17:00 4.19 1010.0 28.9
03/10/2019 16:00 4.18 1010.0 29.2
03/10/2019 15:00 4.17 1000.0 29.4
03/10/2019 14:00 4.18 1010.0 30.0
03/10/2019 13:00 4.18 1010.0 28.8
03/10/2019 12:00 4.17 1000.0 28.3
03/10/2019 11:00 4.16 994.0 27.5
03/10/2019 10:00 4.16 994.0 27.0
03/10/2019 09:00 4.16 994.0 26.4
03/10/2019 08:00 4.16 994.0 27.4
03/10/2019 07:00 4.16 994.0 27.3
03/10/2019 06:00 4.16 994.0 26.9
03/10/2019 05:00 4.16 994.0 27.2
03/10/2019 04:00 4.15 989.0 27.1
03/10/2019 03:00 4.16 994.0 27.3
03/10/2019 02:00 4.16 994.0 26.5
03/10/2019 01:00 4.15 989.0 26.7
03/10/2019 00:00 4.16 994.0 25.7
03/09/2019 23:00 4.15 989.0 21.9
03/09/2019 22:00 4.16 994.0 22.5
03/09/2019 21:00 4.15 989.0 24.2
03/09/2019 20:00 4.15 989.0 25.1
03/09/2019 19:00 4.15 989.0 28.2
03/09/2019 18:00 4.16 994.0 34.2
03/09/2019 17:00 4.15 989.0 39.0
03/09/2019 16:00 4.15 989.0 40.5
03/09/2019 15:00 4.15 989.0 40.4
03/09/2019 14:00 4.15 989.0 40.4
03/09/2019 13:00 4.15 989.0 40.8
03/09/2019 12:00 4.15 989.0 39.6
03/09/2019 11:00 4.15 989.0 37.0
03/09/2019 10:00 4.16 994.0 35.9
03/09/2019 09:00 4.15 989.0 34.7
03/09/2019 08:00 4.15 989.0 21.0
03/09/2019 07:00 4.15 989.0 9.4
03/09/2019 06:00 4.15 989.0 7.4
03/09/2019 05:00 4.15 989.0 8.2
03/09/2019 04:00 4.16 994.0 9.3
03/09/2019 03:00 4.16 994.0 10.8
03/09/2019 02:00 4.16 994.0 12.2
03/09/2019 01:00 4.16 994.0 14.4
03/09/2019 00:00 4.15 989.0 16.3
03/08/2019 23:00 -- -- --
03/08/2019 22:00 -- -- --
03/08/2019 21:00 -- -- --
03/08/2019 20:00 -- -- --
03/08/2019 19:00 -- -- --